sensor_id;sensor_type;location;lat;lon;timestamp;temperature;humidity
9810;DHT22;4944;52.514;13.192;2023-11-22T00:00:37;3.00;99.90
9810;DHT22;4944;52.514;13.192;2023-11-22T00:03:03;3.00;99.90
9810;DHT22;4944;52.514;13.192;2023-11-22T00:05:30;3.00;99.90
9810;DHT22;4944;52.514;13.192;2023-11-22T00:07:57;3.00;99.90
9810;DHT22;4944;52.514;13.192;2023-11-22T00:10:24;3.00;99.90
9810;DHT22;4944;52.514;13.192;2023-11-22T00:12:52;3.00;99.90
9810;DHT22;4944;52.514;13.192;2023-11-22T00:15:19;2.90;99.90
9810;DHT22;4944;52.514;13.192;2023-11-22T00:17:46;3.00;99.90
9810;DHT22;4944;52.514;13.192;2023-11-22T00:20:13;3.00;99.90
9810;DHT22;4944;52.514;13.192;2023-11-22T00:22:40;3.00;99.90
9810;DHT22;4944;52.514;13.192;2023-11-22T00:25:07;3.00;99.90
9810;DHT22;4944;52.514;13.192;2023-11-22T00:27:34;3.00;99.90
9810;DHT22;4944;52.514;13.192;2023-11-22T00:30:04;2.90;99.90
9810;DHT22;4944;52.514;13.192;2023-11-22T00:32:31;2.90;99.90
9810;DHT22;4944;52.514;13.192;2023-11-22T00:34:58;2.90;99.90
9810;DHT22;4944;52.514;13.192;2023-11-22T00:37:24;2.90;99.90
9810;DHT22;4944;52.514;13.192;2023-11-22T00:39:51;2.90;99.90
9810;DHT22;4944;52.514;13.192;2023-11-22T00:42:18;2.90;99.90
9810;DHT22;4944;52.514;13.192;2023-11-22T00:44:46;2.90;99.90
9810;DHT22;4944;52.514;13.192;2023-11-22T00:47:15;2.90;99.90
9810;DHT22;4944;52.514;13.192;2023-11-22T00:49:42;2.90;99.90
9810;DHT22;4944;52.514;13.192;2023-11-22T00:52:09;2.80;99.90
9810;DHT22;4944;52.514;13.192;2023-11-22T00:54:36;2.80;99.90
9810;DHT22;4944;52.514;13.192;2023-11-22T00:57:03;2.80;99.90
9810;DHT22;4944;52.514;13.192;2023-11-22T00:59:30;2.80;99.90
9810;DHT22;4944;52.514;13.192;2023-11-22T01:01:57;2.80;99.90
9810;DHT22;4944;52.514;13.192;2023-11-22T01:04:25;2.90;99.90
9810;DHT22;4944;52.514;13.192;2023-11-22T01:06:52;2.80;99.90
9810;DHT22;4944;52.514;13.192;2023-11-22T01:09:19;2.80;99.90
9810;DHT22;4944;52.514;13.192;2023-11-22T01:11:47;2.80;99.90
9810;DHT22;4944;52.514;13.192;2023-11-22T01:14:13;2.80;99.90
9810;DHT22;4944;52.514;13.192;2023-11-22T01:16:40;2.70;99.90
9810;DHT22;4944;52.514;13.192;2023-11-22T01:19:08;2.70;99.90
9810;DHT22;4944;52.514;13.192;2023-11-22T01:21:37;2.70;99.90
9810;DHT22;4944;52.514;13.192;2023-11-22T01:24:04;2.60;99.90
9810;DHT22;4944;52.514;13.192;2023-11-22T01:26:31;2.60;99.90
9810;DHT22;4944;52.514;13.192;2023-11-22T01:28:58;2.50;99.90
9810;DHT22;4944;52.514;13.192;2023-11-22T01:31:26;2.50;99.90
9810;DHT22;4944;52.514;13.192;2023-11-22T01:33:53;2.40;99.90
9810;DHT22;4944;52.514;13.192;2023-11-22T01:36:20;2.30;99.90
9810;DHT22;4944;52.514;13.192;2023-11-22T01:38:48;2.40;99.90
9810;DHT22;4944;52.514;13.192;2023-11-22T01:41:16;2.30;99.90
9810;DHT22;4944;52.514;13.192;2023-11-22T01:43:43;2.30;99.90
9810;DHT22;4944;52.514;13.192;2023-11-22T01:46:12;2.30;99.90
9810;DHT22;4944;52.514;13.192;2023-11-22T01:48:43;2.30;99.90
9810;DHT22;4944;52.514;13.192;2023-11-22T01:51:10;2.30;99.90
9810;DHT22;4944;52.514;13.192;2023-11-22T01:53:37;2.30;99.90
9810;DHT22;4944;52.514;13.192;2023-11-22T01:56:06;2.30;99.90
9810;DHT22;4944;52.514;13.192;2023-11-22T01:58:33;2.30;99.90
9810;DHT22;4944;52.514;13.192;2023-11-22T02:01:01;2.30;99.90
9810;DHT22;4944;52.514;13.192;2023-11-22T02:03:28;2.30;99.90
9810;DHT22;4944;52.514;13.192;2023-11-22T02:05:55;2.30;99.90
9810;DHT22;4944;52.514;13.192;2023-11-22T02:08:22;2.30;99.90
9810;DHT22;4944;52.514;13.192;2023-11-22T02:11:01;2.20;99.90
9810;DHT22;4944;52.514;13.192;2023-11-22T02:13:30;2.30;99.90
9810;DHT22;4944;52.514;13.192;2023-11-22T02:15:57;2.20;99.90
9810;DHT22;4944;52.514;13.192;2023-11-22T02:18:25;2.20;99.90
9810;DHT22;4944;52.514;13.192;2023-11-22T02:20:52;2.20;99.90
9810;DHT22;4944;52.514;13.192;2023-11-22T02:23:21;2.10;99.90
9810;DHT22;4944;52.514;13.192;2023-11-22T02:25:47;2.10;99.90
9810;DHT22;4944;52.514;13.192;2023-11-22T02:28:14;2.00;99.90
9810;DHT22;4944;52.514;13.192;2023-11-22T02:30:42;1.90;99.90
9810;DHT22;4944;52.514;13.192;2023-11-22T02:33:09;1.90;99.90
9810;DHT22;4944;52.514;13.192;2023-11-22T02:35:35;1.90;99.90
9810;DHT22;4944;52.514;13.192;2023-11-22T02:38:02;1.90;99.90
9810;DHT22;4944;52.514;13.192;2023-11-22T02:40:32;1.90;99.90
9810;DHT22;4944;52.514;13.192;2023-11-22T02:42:59;2.00;99.90
9810;DHT22;4944;52.514;13.192;2023-11-22T02:45:31;2.00;99.90
9810;DHT22;4944;52.514;13.192;2023-11-22T02:47:58;2.00;99.90
9810;DHT22;4944;52.514;13.192;2023-11-22T02:50:27;2.00;99.90
9810;DHT22;4944;52.514;13.192;2023-11-22T02:52:54;1.90;99.90
9810;DHT22;4944;52.514;13.192;2023-11-22T02:55:21;1.90;99.90
9810;DHT22;4944;52.514;13.192;2023-11-22T02:57:49;1.90;99.90
9810;DHT22;4944;52.514;13.192;2023-11-22T03:00:17;1.90;99.90
9810;DHT22;4944;52.514;13.192;2023-11-22T03:02:45;1.90;99.90
9810;DHT22;4944;52.514;13.192;2023-11-22T03:05:12;1.90;99.90
9810;DHT22;4944;52.514;13.192;2023-11-22T03:07:39;1.90;99.90
9810;DHT22;4944;52.514;13.192;2023-11-22T03:10:07;1.90;99.90
9810;DHT22;4944;52.514;13.192;2023-11-22T03:12:34;1.90;99.90
9810;DHT22;4944;52.514;13.192;2023-11-22T03:15:03;1.90;99.90
9810;DHT22;4944;52.514;13.192;2023-11-22T03:17:31;1.90;99.90
9810;DHT22;4944;52.514;13.192;2023-11-22T03:19:58;1.80;99.90
9810;DHT22;4944;52.514;13.192;2023-11-22T03:22:26;1.80;99.90
9810;DHT22;4944;52.514;13.192;2023-11-22T03:24:55;1.80;99.90
9810;DHT22;4944;52.514;13.192;2023-11-22T03:27:24;1.80;99.90
9810;DHT22;4944;52.514;13.192;2023-11-22T03:29:51;1.80;99.90
9810;DHT22;4944;52.514;13.192;2023-11-22T03:32:20;1.80;99.90
9810;DHT22;4944;52.514;13.192;2023-11-22T03:34:47;1.80;99.90
9810;DHT22;4944;52.514;13.192;2023-11-22T03:37:14;1.70;99.90
9810;DHT22;4944;52.514;13.192;2023-11-22T03:39:41;1.70;99.90
9810;DHT22;4944;52.514;13.192;2023-11-22T03:42:13;1.70;99.90
9810;DHT22;4944;52.514;13.192;2023-11-22T03:44:41;1.70;99.90
9810;DHT22;4944;52.514;13.192;2023-11-22T03:47:10;1.60;99.90
9810;DHT22;4944;52.514;13.192;2023-11-22T03:49:42;1.60;99.90
9810;DHT22;4944;52.514;13.192;2023-11-22T03:52:10;1.50;99.90
9810;DHT22;4944;52.514;13.192;2023-11-22T03:54:37;1.50;99.90
9810;DHT22;4944;52.514;13.192;2023-11-22T03:57:05;1.50;99.90
9810;DHT22;4944;52.514;13.192;2023-11-22T03:59:34;1.50;99.90
9810;DHT22;4944;52.514;13.192;2023-11-22T04:02:01;1.50;99.90
9810;DHT22;4944;52.514;13.192;2023-11-22T04:04:28;1.50;99.90
9810;DHT22;4944;52.514;13.192;2023-11-22T04:06:57;1.50;99.90
9810;DHT22;4944;52.514;13.192;2023-11-22T04:09:24;1.50;99.90
9810;DHT22;4944;52.514;13.192;2023-11-22T04:11:51;1.50;99.90
9810;DHT22;4944;52.514;13.192;2023-11-22T04:14:17;1.50;99.90
9810;DHT22;4944;52.514;13.192;2023-11-22T04:16:46;1.50;99.90
9810;DHT22;4944;52.514;13.192;2023-11-22T04:19:12;1.50;99.90
9810;DHT22;4944;52.514;13.192;2023-11-22T04:21:39;1.40;99.90
9810;DHT22;4944;52.514;13.192;2023-11-22T04:24:08;1.30;99.90
9810;DHT22;4944;52.514;13.192;2023-11-22T04:26:35;1.30;99.90
9810;DHT22;4944;52.514;13.192;2023-11-22T04:29:02;1.30;99.90
9810;DHT22;4944;52.514;13.192;2023-11-22T04:31:29;1.30;99.90
9810;DHT22;4944;52.514;13.192;2023-11-22T04:33:56;1.30;99.90
9810;DHT22;4944;52.514;13.192;2023-11-22T04:36:25;1.30;99.90
9810;DHT22;4944;52.514;13.192;2023-11-22T04:38:52;1.30;99.90
9810;DHT22;4944;52.514;13.192;2023-11-22T04:41:20;1.30;99.90
9810;DHT22;4944;52.514;13.192;2023-11-22T04:43:48;1.30;99.90
9810;DHT22;4944;52.514;13.192;2023-11-22T04:46:15;1.30;99.90
9810;DHT22;4944;52.514;13.192;2023-11-22T04:48:42;1.30;99.90
9810;DHT22;4944;52.514;13.192;2023-11-22T04:51:10;1.30;99.90
9810;DHT22;4944;52.514;13.192;2023-11-22T04:53:37;1.30;99.90
9810;DHT22;4944;52.514;13.192;2023-11-22T04:56:05;1.30;99.90
9810;DHT22;4944;52.514;13.192;2023-11-22T04:58:33;1.30;99.90
9810;DHT22;4944;52.514;13.192;2023-11-22T05:01:01;1.30;99.90
9810;DHT22;4944;52.514;13.192;2023-11-22T05:03:28;1.30;99.90
9810;DHT22;4944;52.514;13.192;2023-11-22T05:05:55;1.30;99.90
9810;DHT22;4944;52.514;13.192;2023-11-22T05:08:22;1.30;99.90
9810;DHT22;4944;52.514;13.192;2023-11-22T05:10:48;1.30;99.90
9810;DHT22;4944;52.514;13.192;2023-11-22T05:13:15;1.30;99.90
9810;DHT22;4944;52.514;13.192;2023-11-22T05:15:44;1.30;99.90
9810;DHT22;4944;52.514;13.192;2023-11-22T05:18:10;1.30;99.90
9810;DHT22;4944;52.514;13.192;2023-11-22T05:20:37;1.20;99.90
9810;DHT22;4944;52.514;13.192;2023-11-22T05:23:04;1.20;99.90
9810;DHT22;4944;52.514;13.192;2023-11-22T05:25:31;1.20;99.90
9810;DHT22;4944;52.514;13.192;2023-11-22T05:27:58;1.10;99.90
9810;DHT22;4944;52.514;13.192;2023-11-22T05:30:25;1.10;99.90
9810;DHT22;4944;52.514;13.192;2023-11-22T05:32:53;1.10;99.90
9810;DHT22;4944;52.514;13.192;2023-11-22T05:35:20;1.00;99.90
9810;DHT22;4944;52.514;13.192;2023-11-22T05:37:47;1.10;99.90
9810;DHT22;4944;52.514;13.192;2023-11-22T05:40:14;1.10;99.90
9810;DHT22;4944;52.514;13.192;2023-11-22T05:42:42;1.10;99.90
9810;DHT22;4944;52.514;13.192;2023-11-22T05:45:09;1.10;99.90
9810;DHT22;4944;52.514;13.192;2023-11-22T05:47:36;1.10;99.90
9810;DHT22;4944;52.514;13.192;2023-11-22T05:50:05;1.10;99.90
9810;DHT22;4944;52.514;13.192;2023-11-22T05:52:32;1.10;99.90
9810;DHT22;4944;52.514;13.192;2023-11-22T05:54:59;1.10;99.90
9810;DHT22;4944;52.514;13.192;2023-11-22T05:57:29;1.10;99.90
9810;DHT22;4944;52.514;13.192;2023-11-22T05:59:56;1.10;99.90
9810;DHT22;4944;52.514;13.192;2023-11-22T06:02:22;1.00;99.90
9810;DHT22;4944;52.514;13.192;2023-11-22T06:04:49;1.00;99.90
9810;DHT22;4944;52.514;13.192;2023-11-22T06:07:17;1.00;99.90
9810;DHT22;4944;52.514;13.192;2023-11-22T06:09:44;1.00;99.90
9810;DHT22;4944;52.514;13.192;2023-11-22T06:12:11;1.00;99.90
9810;DHT22;4944;52.514;13.192;2023-11-22T06:14:38;1.00;99.90
9810;DHT22;4944;52.514;13.192;2023-11-22T06:17:05;1.00;99.90
9810;DHT22;4944;52.514;13.192;2023-11-22T06:19:32;1.00;99.90
9810;DHT22;4944;52.514;13.192;2023-11-22T06:21:59;1.00;99.90
9810;DHT22;4944;52.514;13.192;2023-11-22T06:24:28;0.90;99.90
9810;DHT22;4944;52.514;13.192;2023-11-22T06:26:55;0.90;99.90
9810;DHT22;4944;52.514;13.192;2023-11-22T06:29:21;0.90;99.90
9810;DHT22;4944;52.514;13.192;2023-11-22T06:31:49;0.90;99.90
9810;DHT22;4944;52.514;13.192;2023-11-22T06:34:16;0.90;99.90
9810;DHT22;4944;52.514;13.192;2023-11-22T06:36:43;0.90;99.90
9810;DHT22;4944;52.514;13.192;2023-11-22T06:39:10;0.80;99.90
9810;DHT22;4944;52.514;13.192;2023-11-22T06:41:40;0.80;99.90
9810;DHT22;4944;52.514;13.192;2023-11-22T06:44:08;0.70;99.90
9810;DHT22;4944;52.514;13.192;2023-11-22T06:46:35;0.80;99.90
9810;DHT22;4944;52.514;13.192;2023-11-22T06:49:02;0.90;99.90
9810;DHT22;4944;52.514;13.192;2023-11-22T06:51:30;0.90;99.90
9810;DHT22;4944;52.514;13.192;2023-11-22T06:53:57;0.90;99.90
9810;DHT22;4944;52.514;13.192;2023-11-22T06:56:24;1.00;99.90
9810;DHT22;4944;52.514;13.192;2023-11-22T06:58:52;1.00;99.90
9810;DHT22;4944;52.514;13.192;2023-11-22T07:01:22;0.90;99.90
9810;DHT22;4944;52.514;13.192;2023-11-22T07:03:51;0.90;99.90
9810;DHT22;4944;52.514;13.192;2023-11-22T07:06:19;0.90;99.90
9810;DHT22;4944;52.514;13.192;2023-11-22T07:08:48;0.90;99.90
9810;DHT22;4944;52.514;13.192;2023-11-22T07:11:21;0.80;99.90
9810;DHT22;4944;52.514;13.192;2023-11-22T07:13:49;0.90;99.90
9810;DHT22;4944;52.514;13.192;2023-11-22T07:16:18;0.90;99.90
9810;DHT22;4944;52.514;13.192;2023-11-22T07:18:46;0.90;99.90
9810;DHT22;4944;52.514;13.192;2023-11-22T07:21:13;0.90;99.90
9810;DHT22;4944;52.514;13.192;2023-11-22T07:23:40;0.90;99.90
9810;DHT22;4944;52.514;13.192;2023-11-22T07:26:07;0.90;99.90
9810;DHT22;4944;52.514;13.192;2023-11-22T07:28:34;0.90;99.90
9810;DHT22;4944;52.514;13.192;2023-11-22T07:31:02;0.90;99.90
9810;DHT22;4944;52.514;13.192;2023-11-22T07:33:32;1.00;99.90
9810;DHT22;4944;52.514;13.192;2023-11-22T07:35:59;1.10;99.90
9810;DHT22;4944;52.514;13.192;2023-11-22T07:38:26;1.10;99.90
9810;DHT22;4944;52.514;13.192;2023-11-22T07:40:55;1.10;99.90
9810;DHT22;4944;52.514;13.192;2023-11-22T07:43:22;1.10;99.90
9810;DHT22;4944;52.514;13.192;2023-11-22T07:45:48;1.20;99.90
9810;DHT22;4944;52.514;13.192;2023-11-22T07:48:16;1.30;99.90
9810;DHT22;4944;52.514;13.192;2023-11-22T07:50:45;1.30;99.90
9810;DHT22;4944;52.514;13.192;2023-11-22T07:53:14;1.40;99.90
9810;DHT22;4944;52.514;13.192;2023-11-22T07:55:40;1.50;99.90
9810;DHT22;4944;52.514;13.192;2023-11-22T07:58:07;1.60;99.90
9810;DHT22;4944;52.514;13.192;2023-11-22T08:00:34;1.60;99.90
9810;DHT22;4944;52.514;13.192;2023-11-22T08:03:02;1.70;99.90
9810;DHT22;4944;52.514;13.192;2023-11-22T08:05:29;1.80;99.90
9810;DHT22;4944;52.514;13.192;2023-11-22T08:08:01;1.90;99.90
9810;DHT22;4944;52.514;13.192;2023-11-22T08:10:32;2.10;99.90
9810;DHT22;4944;52.514;13.192;2023-11-22T08:13:00;2.20;99.90
9810;DHT22;4944;52.514;13.192;2023-11-22T08:15:27;2.30;99.90
9810;DHT22;4944;52.514;13.192;2023-11-22T08:17:57;2.40;99.90
9810;DHT22;4944;52.514;13.192;2023-11-22T08:20:24;2.50;99.90
9810;DHT22;4944;52.514;13.192;2023-11-22T08:22:51;2.70;99.90
9810;DHT22;4944;52.514;13.192;2023-11-22T08:25:19;2.70;99.90
9810;DHT22;4944;52.514;13.192;2023-11-22T08:27:46;2.80;99.90
9810;DHT22;4944;52.514;13.192;2023-11-22T08:30:13;2.90;99.90
9810;DHT22;4944;52.514;13.192;2023-11-22T08:32:41;3.10;99.90
9810;DHT22;4944;52.514;13.192;2023-11-22T08:35:09;3.10;99.90
9810;DHT22;4944;52.514;13.192;2023-11-22T08:37:36;3.20;99.90
9810;DHT22;4944;52.514;13.192;2023-11-22T08:40:06;2.90;99.90
9810;DHT22;4944;52.514;13.192;2023-11-22T08:42:34;3.00;99.90
9810;DHT22;4944;52.514;13.192;2023-11-22T08:45:02;3.10;99.90
9810;DHT22;4944;52.514;13.192;2023-11-22T08:47:29;3.10;99.90
9810;DHT22;4944;52.514;13.192;2023-11-22T08:49:56;3.00;99.90
9810;DHT22;4944;52.514;13.192;2023-11-22T08:52:24;3.10;99.90
9810;DHT22;4944;52.514;13.192;2023-11-22T08:54:51;3.20;99.90
9810;DHT22;4944;52.514;13.192;2023-11-22T08:57:18;3.20;99.90
9810;DHT22;4944;52.514;13.192;2023-11-22T08:59:47;3.30;99.90
9810;DHT22;4944;52.514;13.192;2023-11-22T09:02:14;3.40;99.90
9810;DHT22;4944;52.514;13.192;2023-11-22T09:04:41;3.40;99.90
9810;DHT22;4944;52.514;13.192;2023-11-22T09:07:08;3.50;99.90
9810;DHT22;4944;52.514;13.192;2023-11-22T09:09:36;3.60;99.90
9810;DHT22;4944;52.514;13.192;2023-11-22T09:12:04;3.70;99.90
9810;DHT22;4944;52.514;13.192;2023-11-22T09:14:38;3.80;99.90
9810;DHT22;4944;52.514;13.192;2023-11-22T09:17:07;4.00;99.90
9810;DHT22;4944;52.514;13.192;2023-11-22T09:19:35;4.00;99.90
9810;DHT22;4944;52.514;13.192;2023-11-22T09:22:01;4.00;99.90
9810;DHT22;4944;52.514;13.192;2023-11-22T09:24:28;4.10;99.90
9810;DHT22;4944;52.514;13.192;2023-11-22T09:26:55;4.30;99.90
9810;DHT22;4944;52.514;13.192;2023-11-22T09:29:22;4.40;99.90
9810;DHT22;4944;52.514;13.192;2023-11-22T09:31:49;4.50;99.90
9810;DHT22;4944;52.514;13.192;2023-11-22T09:34:19;4.60;99.90
9810;DHT22;4944;52.514;13.192;2023-11-22T09:36:46;4.70;99.90
9810;DHT22;4944;52.514;13.192;2023-11-22T09:39:13;4.80;99.90
9810;DHT22;4944;52.514;13.192;2023-11-22T09:41:40;4.70;99.90
9810;DHT22;4944;52.514;13.192;2023-11-22T09:44:06;4.80;99.90
9810;DHT22;4944;52.514;13.192;2023-11-22T09:46:36;4.90;99.90
9810;DHT22;4944;52.514;13.192;2023-11-22T09:49:08;5.00;99.90
9810;DHT22;4944;52.514;13.192;2023-11-22T09:51:39;5.10;99.90
9810;DHT22;4944;52.514;13.192;2023-11-22T09:54:08;5.00;99.90
9810;DHT22;4944;52.514;13.192;2023-11-22T09:56:40;5.10;99.90
9810;DHT22;4944;52.514;13.192;2023-11-22T09:59:07;5.10;99.90
9810;DHT22;4944;52.514;13.192;2023-11-22T10:01:37;5.10;99.90
9810;DHT22;4944;52.514;13.192;2023-11-22T10:04:04;5.30;99.90
9810;DHT22;4944;52.514;13.192;2023-11-22T10:06:31;5.20;99.90
9810;DHT22;4944;52.514;13.192;2023-11-22T10:09:01;5.30;99.90
9810;DHT22;4944;52.514;13.192;2023-11-22T10:11:32;5.40;99.90
9810;DHT22;4944;52.514;13.192;2023-11-22T10:13:59;5.40;99.90
9810;DHT22;4944;52.514;13.192;2023-11-22T10:16:26;5.30;99.90
9810;DHT22;4944;52.514;13.192;2023-11-22T10:18:52;5.30;99.90
9810;DHT22;4944;52.514;13.192;2023-11-22T10:21:20;5.40;99.90
9810;DHT22;4944;52.514;13.192;2023-11-22T10:23:48;5.60;99.90
9810;DHT22;4944;52.514;13.192;2023-11-22T10:26:18;5.70;99.90
9810;DHT22;4944;52.514;13.192;2023-11-22T10:28:45;5.70;99.90
9810;DHT22;4944;52.514;13.192;2023-11-22T10:31:12;5.80;99.90
9810;DHT22;4944;52.514;13.192;2023-11-22T10:33:40;5.70;99.90
9810;DHT22;4944;52.514;13.192;2023-11-22T10:36:07;5.70;99.90
9810;DHT22;4944;52.514;13.192;2023-11-22T10:38:35;5.50;99.90
9810;DHT22;4944;52.514;13.192;2023-11-22T10:41:04;5.60;99.90
9810;DHT22;4944;52.514;13.192;2023-11-22T10:43:32;5.70;99.90
9810;DHT22;4944;52.514;13.192;2023-11-22T10:46:02;5.80;99.90
9810;DHT22;4944;52.514;13.192;2023-11-22T10:48:30;5.60;99.90
9810;DHT22;4944;52.514;13.192;2023-11-22T10:51:00;5.60;99.90
9810;DHT22;4944;52.514;13.192;2023-11-22T10:53:32;5.80;99.90
9810;DHT22;4944;52.514;13.192;2023-11-22T10:56:04;5.90;99.90
9810;DHT22;4944;52.514;13.192;2023-11-22T10:58:33;6.00;99.90
9810;DHT22;4944;52.514;13.192;2023-11-22T11:01:05;6.20;99.90
9810;DHT22;4944;52.514;13.192;2023-11-22T11:03:37;6.30;99.90
9810;DHT22;4944;52.514;13.192;2023-11-22T11:06:08;6.40;99.90
9810;DHT22;4944;52.514;13.192;2023-11-22T11:08:39;6.60;99.90
9810;DHT22;4944;52.514;13.192;2023-11-22T11:11:06;6.60;99.90
9810;DHT22;4944;52.514;13.192;2023-11-22T11:13:34;6.60;99.90
9810;DHT22;4944;52.514;13.192;2023-11-22T11:16:02;6.70;99.90
9810;DHT22;4944;52.514;13.192;2023-11-22T11:18:29;6.80;99.90
9810;DHT22;4944;52.514;13.192;2023-11-22T11:20:59;6.90;99.90
9810;DHT22;4944;52.514;13.192;2023-11-22T11:23:26;7.00;99.90
9810;DHT22;4944;52.514;13.192;2023-11-22T11:25:55;7.00;99.90
9810;DHT22;4944;52.514;13.192;2023-11-22T11:28:22;7.00;99.90
9810;DHT22;4944;52.514;13.192;2023-11-22T11:30:53;6.90;99.90
9810;DHT22;4944;52.514;13.192;2023-11-22T11:33:26;7.00;99.90
9810;DHT22;4944;52.514;13.192;2023-11-22T11:35:56;7.10;99.90
9810;DHT22;4944;52.514;13.192;2023-11-22T11:38:30;7.20;99.90
9810;DHT22;4944;52.514;13.192;2023-11-22T11:41:06;7.30;99.90
9810;DHT22;4944;52.514;13.192;2023-11-22T11:43:42;7.40;99.90
9810;DHT22;4944;52.514;13.192;2023-11-22T11:46:13;7.50;99.90
9810;DHT22;4944;52.514;13.192;2023-11-22T11:48:43;7.60;99.90
9810;DHT22;4944;52.514;13.192;2023-11-22T11:51:13;7.50;99.90
9810;DHT22;4944;52.514;13.192;2023-11-22T11:53:40;7.60;99.90
9810;DHT22;4944;52.514;13.192;2023-11-22T11:56:08;7.60;99.90
9810;DHT22;4944;52.514;13.192;2023-11-22T11:58:35;7.60;99.90
9810;DHT22;4944;52.514;13.192;2023-11-22T12:01:04;7.60;99.90
9810;DHT22;4944;52.514;13.192;2023-11-22T12:03:32;7.50;99.90
9810;DHT22;4944;52.514;13.192;2023-11-22T12:05:59;7.40;99.90
9810;DHT22;4944;52.514;13.192;2023-11-22T12:08:26;7.30;99.70
9810;DHT22;4944;52.514;13.192;2023-11-22T12:10:56;7.20;99.90
9810;DHT22;4944;52.514;13.192;2023-11-22T12:13:24;7.20;99.90
9810;DHT22;4944;52.514;13.192;2023-11-22T12:15:52;7.20;99.70
9810;DHT22;4944;52.514;13.192;2023-11-22T12:18:20;7.20;99.70
9810;DHT22;4944;52.514;13.192;2023-11-22T12:20:55;7.10;99.60
9810;DHT22;4944;52.514;13.192;2023-11-22T12:23:23;7.10;99.80
9810;DHT22;4944;52.514;13.192;2023-11-22T12:25:54;7.20;99.40
9810;DHT22;4944;52.514;13.192;2023-11-22T12:28:23;7.20;99.60
9810;DHT22;4944;52.514;13.192;2023-11-22T12:30:50;7.30;99.70
9810;DHT22;4944;52.514;13.192;2023-11-22T12:33:17;7.40;99.90
9810;DHT22;4944;52.514;13.192;2023-11-22T12:35:45;7.40;99.70
9810;DHT22;4944;52.514;13.192;2023-11-22T12:38:14;7.40;99.70
9810;DHT22;4944;52.514;13.192;2023-11-22T12:40:44;7.30;99.40
9810;DHT22;4944;52.514;13.192;2023-11-22T12:43:13;7.10;99.30
9810;DHT22;4944;52.514;13.192;2023-11-22T12:45:40;7.10;99.50
9810;DHT22;4944;52.514;13.192;2023-11-22T12:48:21;7.00;99.70
9810;DHT22;4944;52.514;13.192;2023-11-22T12:50:49;7.00;99.90
9810;DHT22;4944;52.514;13.192;2023-11-22T12:53:18;7.00;99.90
9810;DHT22;4944;52.514;13.192;2023-11-22T12:55:47;6.80;99.50
9810;DHT22;4944;52.514;13.192;2023-11-22T12:58:15;6.60;99.90
9810;DHT22;4944;52.514;13.192;2023-11-22T13:00:44;6.50;99.90
9810;DHT22;4944;52.514;13.192;2023-11-22T13:03:12;6.50;99.90
9810;DHT22;4944;52.514;13.192;2023-11-22T13:05:39;6.30;99.90
9810;DHT22;4944;52.514;13.192;2023-11-22T13:08:08;6.20;99.90
9810;DHT22;4944;52.514;13.192;2023-11-22T13:10:38;6.10;99.90
9810;DHT22;4944;52.514;13.192;2023-11-22T13:13:06;5.90;99.90
9810;DHT22;4944;52.514;13.192;2023-11-22T13:15:35;5.80;99.90
9810;DHT22;4944;52.514;13.192;2023-11-22T13:18:02;5.70;99.90
9810;DHT22;4944;52.514;13.192;2023-11-22T13:20:31;5.60;99.90
9810;DHT22;4944;52.514;13.192;2023-11-22T13:22:58;5.40;99.90
9810;DHT22;4944;52.514;13.192;2023-11-22T13:25:26;5.40;99.90
9810;DHT22;4944;52.514;13.192;2023-11-22T13:27:54;5.20;99.90
9810;DHT22;4944;52.514;13.192;2023-11-22T13:30:23;5.00;99.90
9810;DHT22;4944;52.514;13.192;2023-11-22T13:32:51;4.90;99.90
9810;DHT22;4944;52.514;13.192;2023-11-22T13:35:19;5.00;99.90
9810;DHT22;4944;52.514;13.192;2023-11-22T13:37:47;5.10;99.90
9810;DHT22;4944;52.514;13.192;2023-11-22T13:40:16;5.20;99.90
9810;DHT22;4944;52.514;13.192;2023-11-22T13:42:47;5.20;99.90
9810;DHT22;4944;52.514;13.192;2023-11-22T13:45:17;4.90;99.90
9810;DHT22;4944;52.514;13.192;2023-11-22T13:47:44;5.00;99.90
9810;DHT22;4944;52.514;13.192;2023-11-22T13:50:13;5.00;99.90
9810;DHT22;4944;52.514;13.192;2023-11-22T13:52:44;5.00;99.90
9810;DHT22;4944;52.514;13.192;2023-11-22T13:55:11;5.00;99.90
9810;DHT22;4944;52.514;13.192;2023-11-22T13:57:38;4.90;99.90
9810;DHT22;4944;52.514;13.192;2023-11-22T14:00:06;4.90;99.90
9810;DHT22;4944;52.514;13.192;2023-11-22T14:02:39;4.90;99.90
9810;DHT22;4944;52.514;13.192;2023-11-22T14:05:07;4.70;99.90
9810;DHT22;4944;52.514;13.192;2023-11-22T14:07:35;4.70;99.90
9810;DHT22;4944;52.514;13.192;2023-11-22T14:10:03;4.80;99.90
9810;DHT22;4944;52.514;13.192;2023-11-22T14:12:31;4.80;99.90
9810;DHT22;4944;52.514;13.192;2023-11-22T14:14:58;4.90;99.90
9810;DHT22;4944;52.514;13.192;2023-11-22T14:17:25;4.90;99.90
9810;DHT22;4944;52.514;13.192;2023-11-22T14:19:53;4.90;99.90
9810;DHT22;4944;52.514;13.192;2023-11-22T14:22:21;4.90;99.90
9810;DHT22;4944;52.514;13.192;2023-11-22T14:24:48;4.90;99.90
9810;DHT22;4944;52.514;13.192;2023-11-22T14:27:15;4.90;99.90
9810;DHT22;4944;52.514;13.192;2023-11-22T14:29:43;4.60;99.90
9810;DHT22;4944;52.514;13.192;2023-11-22T14:32:13;4.40;99.90
9810;DHT22;4944;52.514;13.192;2023-11-22T14:34:40;4.40;99.90
9810;DHT22;4944;52.514;13.192;2023-11-22T14:37:10;4.30;99.90
9810;DHT22;4944;52.514;13.192;2023-11-22T14:39:38;4.30;99.90
9810;DHT22;4944;52.514;13.192;2023-11-22T14:42:05;4.40;99.90
9810;DHT22;4944;52.514;13.192;2023-11-22T14:44:33;4.40;99.90
9810;DHT22;4944;52.514;13.192;2023-11-22T14:47:01;4.40;99.90
9810;DHT22;4944;52.514;13.192;2023-11-22T14:49:31;4.50;99.90
9810;DHT22;4944;52.514;13.192;2023-11-22T14:51:58;4.20;99.90
9810;DHT22;4944;52.514;13.192;2023-11-22T14:54:26;4.00;99.90
9810;DHT22;4944;52.514;13.192;2023-11-22T14:56:54;3.90;99.90
9810;DHT22;4944;52.514;13.192;2023-11-22T14:59:25;3.90;99.90
9810;DHT22;4944;52.514;13.192;2023-11-22T15:01:52;4.00;99.90
9810;DHT22;4944;52.514;13.192;2023-11-22T15:04:20;4.00;99.90
9810;DHT22;4944;52.514;13.192;2023-11-22T15:06:47;4.00;99.90
9810;DHT22;4944;52.514;13.192;2023-11-22T15:09:15;4.00;99.90
9810;DHT22;4944;52.514;13.192;2023-11-22T15:11:43;3.90;99.90
9810;DHT22;4944;52.514;13.192;2023-11-22T15:14:10;3.90;99.90
9810;DHT22;4944;52.514;13.192;2023-11-22T15:16:37;3.90;99.90
9810;DHT22;4944;52.514;13.192;2023-11-22T15:19:04;4.00;99.90
9810;DHT22;4944;52.514;13.192;2023-11-22T15:21:32;3.90;99.90
9810;DHT22;4944;52.514;13.192;2023-11-22T15:24:00;4.00;99.90
9810;DHT22;4944;52.514;13.192;2023-11-22T15:26:28;3.90;99.90
9810;DHT22;4944;52.514;13.192;2023-11-22T15:28:57;3.70;99.90
9810;DHT22;4944;52.514;13.192;2023-11-22T15:31:24;3.60;99.90
9810;DHT22;4944;52.514;13.192;2023-11-22T15:33:50;3.70;99.90
9810;DHT22;4944;52.514;13.192;2023-11-22T15:36:17;3.70;99.90
9810;DHT22;4944;52.514;13.192;2023-11-22T15:38:45;3.70;99.90
9810;DHT22;4944;52.514;13.192;2023-11-22T15:41:12;3.80;99.90
9810;DHT22;4944;52.514;13.192;2023-11-22T15:43:39;3.90;99.90
9810;DHT22;4944;52.514;13.192;2023-11-22T15:46:11;3.90;99.90
9810;DHT22;4944;52.514;13.192;2023-11-22T15:48:40;4.00;99.90
9810;DHT22;4944;52.514;13.192;2023-11-22T15:51:09;4.00;99.90
9810;DHT22;4944;52.514;13.192;2023-11-22T15:53:37;3.70;99.90
9810;DHT22;4944;52.514;13.192;2023-11-22T15:56:04;3.50;99.90
9810;DHT22;4944;52.514;13.192;2023-11-22T15:58:33;3.50;99.90
9810;DHT22;4944;52.514;13.192;2023-11-22T16:01:00;3.60;99.90
9810;DHT22;4944;52.514;13.192;2023-11-22T16:03:30;3.60;99.90
9810;DHT22;4944;52.514;13.192;2023-11-22T16:05:58;3.60;99.90